sensor_id;sensor_type;location;lat;lon;timestamp;pressure;altitude;pressure_sealevel;temperature;humidity
73941;BME280;62294;48.554;10.202;2023-07-13T00:01:52;88500.72;;;17.45;100.00
73941;BME280;62294;48.554;10.202;2023-07-13T00:04:37;88532.88;;;17.36;100.00
73941;BME280;62294;48.554;10.202;2023-07-13T00:07:04;88562.22;;;17.40;100.00
73941;BME280;62294;48.554;10.202;2023-07-13T00:09:30;88590.88;;;17.43;100.00
73941;BME280;62294;48.554;10.202;2023-07-13T00:11:57;88605.00;;;17.43;100.00
73941;BME280;62294;48.554;10.202;2023-07-13T00:14:26;88625.09;;;17.39;100.00
73941;BME280;62294;48.554;10.202;2023-07-13T00:16:53;88652.81;;;17.36;100.00
73941;BME280;62294;48.554;10.202;2023-07-13T00:19:20;88664.13;;;17.40;100.00
73941;BME280;62294;48.554;10.202;2023-07-13T00:21:46;88659.16;;;17.51;100.00
73941;BME280;62294;48.554;10.202;2023-07-13T00:24:15;88650.25;;;17.54;100.00
73941;BME280;62294;48.554;10.202;2023-07-13T00:26:43;88642.66;;;17.61;100.00
73941;BME280;62294;48.554;10.202;2023-07-13T00:29:12;88638.66;;;17.66;100.00
73941;BME280;62294;48.554;10.202;2023-07-13T00:31:39;88611.75;;;17.79;100.00
73941;BME280;62294;48.554;10.202;2023-07-13T00:34:06;88645.53;;;17.67;100.00
73941;BME280;62294;48.554;10.202;2023-07-13T00:36:33;88662.50;;;17.64;100.00
73941;BME280;62294;48.554;10.202;2023-07-13T00:39:00;88702.06;;;17.51;100.00
73941;BME280;62294;48.554;10.202;2023-07-13T00:41:26;88752.63;;;17.40;100.00
73941;BME280;62294;48.554;10.202;2023-07-13T00:43:53;88755.19;;;17.43;100.00
73941;BME280;62294;48.554;10.202;2023-07-13T00:46:23;88760.06;;;17.36;100.00
73941;BME280;62294;48.554;10.202;2023-07-13T00:48:53;88716.84;;;17.55;100.00
73941;BME280;62294;48.554;10.202;2023-07-13T00:51:31;88713.63;;;17.48;100.00
73941;BME280;62294;48.554;10.202;2023-07-13T00:54:04;88736.25;;;17.38;100.00
73941;BME280;62294;48.554;10.202;2023-07-13T00:56:32;88703.59;;;17.52;100.00
73941;BME280;62294;48.554;10.202;2023-07-13T00:59:01;88698.53;;;17.54;100.00
73941;BME280;62294;48.554;10.202;2023-07-13T01:01:29;88722.28;;;17.43;100.00
73941;BME280;62294;48.554;10.202;2023-07-13T01:03:55;88755.31;;;17.40;100.00
73941;BME280;62294;48.554;10.202;2023-07-13T01:06:23;88812.00;;;17.29;100.00
73941;BME280;62294;48.554;10.202;2023-07-13T01:08:50;88846.22;;;17.25;100.00
73941;BME280;62294;48.554;10.202;2023-07-13T01:11:20;88930.63;;;16.95;100.00
73941;BME280;62294;48.554;10.202;2023-07-13T01:13:49;88958.50;;;16.98;100.00
73941;BME280;62294;48.554;10.202;2023-07-13T01:16:23;88970.31;;;17.00;100.00
73941;BME280;62294;48.554;10.202;2023-07-13T01:18:50;88981.66;;;17.04;100.00
73941;BME280;62294;48.554;10.202;2023-07-13T01:21:17;89013.41;;;16.93;100.00
73941;BME280;62294;48.554;10.202;2023-07-13T01:23:45;89000.03;;;17.06;100.00
73941;BME280;62294;48.554;10.202;2023-07-13T01:26:12;88991.34;;;17.15;100.00
73941;BME280;62294;48.554;10.202;2023-07-13T01:28:39;89018.25;;;17.11;100.00
73941;BME280;62294;48.554;10.202;2023-07-13T01:31:05;89037.97;;;17.04;100.00
73941;BME280;62294;48.554;10.202;2023-07-13T01:33:32;89072.28;;;16.97;100.00
73941;BME280;62294;48.554;10.202;2023-07-13T01:36:00;89076.56;;;16.94;100.00
73941;BME280;62294;48.554;10.202;2023-07-13T01:38:28;89095.31;;;16.94;100.00
73941;BME280;62294;48.554;10.202;2023-07-13T01:40:55;89111.25;;;16.85;100.00
73941;BME280;62294;48.554;10.202;2023-07-13T01:43:22;89129.88;;;16.76;100.00
73941;BME280;62294;48.554;10.202;2023-07-13T01:45:48;89145.63;;;16.74;100.00
73941;BME280;62294;48.554;10.202;2023-07-13T01:48:15;89166.59;;;16.63;100.00
73941;BME280;62294;48.554;10.202;2023-07-13T01:50:42;89178.97;;;16.57;100.00
73941;BME280;62294;48.554;10.202;2023-07-13T01:53:09;89181.00;;;16.53;100.00
73941;BME280;62294;48.554;10.202;2023-07-13T01:55:35;89214.63;;;16.38;100.00
73941;BME280;62294;48.554;10.202;2023-07-13T01:58:03;89229.28;;;16.33;100.00
73941;BME280;62294;48.554;10.202;2023-07-13T02:00:30;89239.38;;;16.26;100.00
73941;BME280;62294;48.554;10.202;2023-07-13T02:02:57;89267.97;;;16.13;100.00
73941;BME280;62294;48.554;10.202;2023-07-13T02:05:24;89279.19;;;16.08;100.00
73941;BME280;62294;48.554;10.202;2023-07-13T02:07:50;89272.63;;;16.09;100.00
73941;BME280;62294;48.554;10.202;2023-07-13T02:10:19;89245.06;;;16.12;100.00
73941;BME280;62294;48.554;10.202;2023-07-13T02:12:46;89248.16;;;16.10;100.00
73941;BME280;62294;48.554;10.202;2023-07-13T02:15:12;89252.47;;;16.04;100.00
73941;BME280;62294;48.554;10.202;2023-07-13T02:17:38;89264.44;;;16.00;100.00
73941;BME280;62294;48.554;10.202;2023-07-13T02:20:06;89234.94;;;16.03;100.00
73941;BME280;62294;48.554;10.202;2023-07-13T02:22:33;89234.66;;;15.98;100.00
73941;BME280;62294;48.554;10.202;2023-07-13T02:24:59;89249.38;;;15.90;100.00
73941;BME280;62294;48.554;10.202;2023-07-13T02:27:26;89266.25;;;15.87;100.00
73941;BME280;62294;48.554;10.202;2023-07-13T02:29:53;89292.94;;;15.71;100.00
73941;BME280;62294;48.554;10.202;2023-07-13T02:32:19;89308.66;;;15.69;100.00
73941;BME280;62294;48.554;10.202;2023-07-13T02:34:46;89339.19;;;15.51;100.00
73941;BME280;62294;48.554;10.202;2023-07-13T02:37:13;89360.47;;;15.35;100.00
73941;BME280;62294;48.554;10.202;2023-07-13T02:39:39;89366.88;;;15.38;100.00
73941;BME280;62294;48.554;10.202;2023-07-13T02:42:06;89356.13;;;15.41;100.00
73941;BME280;62294;48.554;10.202;2023-07-13T02:44:33;89352.78;;;15.37;100.00
73941;BME280;62294;48.554;10.202;2023-07-13T02:46:59;89374.22;;;15.34;100.00
73941;BME280;62294;48.554;10.202;2023-07-13T02:49:26;89384.16;;;15.33;100.00
73941;BME280;62294;48.554;10.202;2023-07-13T02:51:52;89388.69;;;15.36;100.00
73941;BME280;62294;48.554;10.202;2023-07-13T02:54:19;89398.00;;;15.28;100.00
73941;BME280;62294;48.554;10.202;2023-07-13T02:56:46;89414.03;;;15.28;100.00
73941;BME280;62294;48.554;10.202;2023-07-13T02:59:12;89455.84;;;15.15;100.00
73941;BME280;62294;48.554;10.202;2023-07-13T03:01:39;89515.34;;;14.96;100.00
73941;BME280;62294;48.554;10.202;2023-07-13T03:04:06;89555.50;;;14.89;100.00
73941;BME280;62294;48.554;10.202;2023-07-13T03:06:33;89603.28;;;14.83;100.00
73941;BME280;62294;48.554;10.202;2023-07-13T03:09:00;89641.16;;;14.75;100.00
73941;BME280;62294;48.554;10.202;2023-07-13T03:11:27;89663.69;;;14.74;100.00
73941;BME280;62294;48.554;10.202;2023-07-13T03:13:54;89661.03;;;14.74;100.00
73941;BME280;62294;48.554;10.202;2023-07-13T03:16:21;89674.38;;;14.74;100.00
73941;BME280;62294;48.554;10.202;2023-07-13T03:18:48;89664.41;;;14.78;100.00
73941;BME280;62294;48.554;10.202;2023-07-13T03:21:15;89681.97;;;14.75;100.00
73941;BME280;62294;48.554;10.202;2023-07-13T03:23:42;89680.06;;;14.76;100.00
73941;BME280;62294;48.554;10.202;2023-07-13T03:26:15;89676.22;;;14.77;100.00
73941;BME280;62294;48.554;10.202;2023-07-13T03:28:42;89683.13;;;14.74;100.00
73941;BME280;62294;48.554;10.202;2023-07-13T03:31:12;89684.25;;;14.77;100.00
73941;BME280;62294;48.554;10.202;2023-07-13T03:33:39;89699.19;;;14.71;100.00
73941;BME280;62294;48.554;10.202;2023-07-13T03:36:09;89730.31;;;14.51;100.00
73941;BME280;62294;48.554;10.202;2023-07-13T03:38:37;89719.50;;;14.61;100.00
73941;BME280;62294;48.554;10.202;2023-07-13T03:41:03;89780.78;;;14.28;100.00
73941;BME280;62294;48.554;10.202;2023-07-13T03:43:30;89807.53;;;14.20;100.00
73941;BME280;62294;48.554;10.202;2023-07-13T03:45:56;89820.53;;;14.15;100.00
73941;BME280;62294;48.554;10.202;2023-07-13T03:48:23;89879.31;;;13.97;100.00
73941;BME280;62294;48.554;10.202;2023-07-13T03:50:49;89850.25;;;14.17;100.00
73941;BME280;62294;48.554;10.202;2023-07-13T03:53:16;89838.03;;;14.23;100.00
73941;BME280;62294;48.554;10.202;2023-07-13T03:55:43;89816.63;;;14.27;100.00
73941;BME280;62294;48.554;10.202;2023-07-13T04:00:51;89846.06;;;14.12;100.00
73941;BME280;62294;48.554;10.202;2023-07-13T04:03:18;89859.84;;;14.07;100.00
73941;BME280;62294;48.554;10.202;2023-07-13T04:05:44;89888.88;;;13.98;100.00
73941;BME280;62294;48.554;10.202;2023-07-13T04:08:11;89880.03;;;14.08;100.00
73941;BME280;62294;48.554;10.202;2023-07-13T04:10:38;89879.22;;;14.18;100.00
73941;BME280;62294;48.554;10.202;2023-07-13T04:13:05;89863.16;;;14.29;100.00
73941;BME280;62294;48.554;10.202;2023-07-13T04:15:32;89832.59;;;14.41;100.00
73941;BME280;62294;48.554;10.202;2023-07-13T04:17:59;89825.75;;;14.40;100.00
73941;BME280;62294;48.554;10.202;2023-07-13T04:20:26;89818.09;;;14.42;100.00
73941;BME280;62294;48.554;10.202;2023-07-13T04:22:52;89803.47;;;14.57;100.00
73941;BME280;62294;48.554;10.202;2023-07-13T04:25:21;89775.94;;;14.67;100.00
73941;BME280;62294;48.554;10.202;2023-07-13T04:27:49;89767.47;;;14.72;100.00
73941;BME280;62294;48.554;10.202;2023-07-13T04:30:16;89762.00;;;14.89;100.00
73941;BME280;62294;48.554;10.202;2023-07-13T04:32:42;89747.72;;;15.03;100.00
73941;BME280;62294;48.554;10.202;2023-07-13T04:35:09;89731.56;;;15.14;100.00
73941;BME280;62294;48.554;10.202;2023-07-13T04:37:35;89715.03;;;15.22;100.00
73941;BME280;62294;48.554;10.202;2023-07-13T04:40:02;89753.50;;;14.98;100.00
73941;BME280;62294;48.554;10.202;2023-07-13T04:42:30;89761.94;;;14.93;100.00
73941;BME280;62294;48.554;10.202;2023-07-13T04:44:57;89737.19;;;15.23;100.00
73941;BME280;62294;48.554;10.202;2023-07-13T04:47:23;89763.63;;;15.17;100.00
73941;BME280;62294;48.554;10.202;2023-07-13T04:49:50;89743.16;;;15.37;100.00
73941;BME280;62294;48.554;10.202;2023-07-13T04:52:17;89758.38;;;15.40;100.00
73941;BME280;62294;48.554;10.202;2023-07-13T04:54:43;89813.66;;;15.13;100.00
73941;BME280;62294;48.554;10.202;2023-07-13T04:57:10;89856.78;;;15.15;100.00
73941;BME280;62294;48.554;10.202;2023-07-13T04:59:36;89870.13;;;15.19;100.00
73941;BME280;62294;48.554;10.202;2023-07-13T05:02:03;89877.31;;;15.25;100.00
73941;BME280;62294;48.554;10.202;2023-07-13T05:04:30;89836.50;;;15.58;100.00
73941;BME280;62294;48.554;10.202;2023-07-13T05:06:56;89795.69;;;15.85;100.00
73941;BME280;62294;48.554;10.202;2023-07-13T05:09:23;89763.00;;;16.00;100.00
73941;BME280;62294;48.554;10.202;2023-07-13T05:11:49;89792.22;;;15.88;100.00
73941;BME280;62294;48.554;10.202;2023-07-13T05:14:16;89863.66;;;15.60;100.00
73941;BME280;62294;48.554;10.202;2023-07-13T05:16:43;89886.41;;;15.76;100.00
73941;BME280;62294;48.554;10.202;2023-07-13T05:19:10;89935.41;;;15.66;100.00
73941;BME280;62294;48.554;10.202;2023-07-13T05:21:36;89871.19;;;16.33;100.00
73941;BME280;62294;48.554;10.202;2023-07-13T05:24:03;89866.59;;;16.33;100.00
73941;BME280;62294;48.554;10.202;2023-07-13T05:26:49;89927.94;;;16.21;100.00
73941;BME280;62294;48.554;10.202;2023-07-13T05:29:16;90005.38;;;16.05;100.00
73941;BME280;62294;48.554;10.202;2023-07-13T05:31:43;90012.84;;;16.20;100.00
73941;BME280;62294;48.554;10.202;2023-07-13T05:34:09;90034.75;;;16.12;100.00
73941;BME280;62294;48.554;10.202;2023-07-13T05:36:35;90011.44;;;16.46;100.00
73941;BME280;62294;48.554;10.202;2023-07-13T05:39:03;89973.25;;;16.72;100.00
73941;BME280;62294;48.554;10.202;2023-07-13T05:41:30;89941.03;;;17.02;100.00
73941;BME280;62294;48.554;10.202;2023-07-13T05:43:56;89892.09;;;17.45;100.00
73941;BME280;62294;48.554;10.202;2023-07-13T05:46:24;89955.56;;;17.32;100.00
73941;BME280;62294;48.554;10.202;2023-07-13T05:48:51;90067.88;;;16.99;100.00
73941;BME280;62294;48.554;10.202;2023-07-13T05:51:17;90160.44;;;16.74;100.00
73941;BME280;62294;48.554;10.202;2023-07-13T05:53:44;90166.41;;;16.88;100.00
73941;BME280;62294;48.554;10.202;2023-07-13T05:56:11;90160.88;;;17.02;100.00
73941;BME280;62294;48.554;10.202;2023-07-13T05:58:38;90163.41;;;17.17;100.00
73941;BME280;62294;48.554;10.202;2023-07-13T06:01:08;90157.38;;;17.39;100.00
73941;BME280;62294;48.554;10.202;2023-07-13T06:03:36;90205.81;;;17.29;100.00
73941;BME280;62294;48.554;10.202;2023-07-13T06:06:05;90286.84;;;17.10;100.00
73941;BME280;62294;48.554;10.202;2023-07-13T06:08:32;90324.78;;;17.08;100.00
73941;BME280;62294;48.554;10.202;2023-07-13T06:11:05;90349.53;;;17.23;100.00
73941;BME280;62294;48.554;10.202;2023-07-13T06:13:32;90354.63;;;17.58;100.00
73941;BME280;62294;48.554;10.202;2023-07-13T06:16:00;90431.75;;;17.47;100.00
73941;BME280;62294;48.554;10.202;2023-07-13T06:18:27;90422.94;;;17.87;100.00
73941;BME280;62294;48.554;10.202;2023-07-13T06:20:53;90418.44;;;18.14;100.00
73941;BME280;62294;48.554;10.202;2023-07-13T06:23:20;90545.41;;;17.74;100.00
73941;BME280;62294;48.554;10.202;2023-07-13T06:25:46;90605.75;;;17.59;100.00
73941;BME280;62294;48.554;10.202;2023-07-13T06:28:12;90570.66;;;17.84;100.00
73941;BME280;62294;48.554;10.202;2023-07-13T06:30:39;90620.34;;;17.51;100.00
73941;BME280;62294;48.554;10.202;2023-07-13T06:33:06;90555.44;;;17.66;100.00
73941;BME280;62294;48.554;10.202;2023-07-13T06:35:33;90548.94;;;17.67;100.00
73941;BME280;62294;48.554;10.202;2023-07-13T06:38:00;90512.72;;;17.86;100.00
73941;BME280;62294;48.554;10.202;2023-07-13T06:40:26;90474.19;;;18.40;100.00
73941;BME280;62294;48.554;10.202;2023-07-13T06:42:56;90602.22;;;18.20;100.00
73941;BME280;62294;48.554;10.202;2023-07-13T06:45:22;90664.69;;;18.31;100.00
73941;BME280;62294;48.554;10.202;2023-07-13T06:47:49;90743.63;;;18.52;100.00
73941;BME280;62294;48.554;10.202;2023-07-13T06:50:16;90805.00;;;18.64;100.00
73941;BME280;62294;48.554;10.202;2023-07-13T06:52:42;90903.31;;;18.68;100.00
73941;BME280;62294;48.554;10.202;2023-07-13T06:55:09;90946.53;;;18.98;100.00
73941;BME280;62294;48.554;10.202;2023-07-13T06:57:35;91082.91;;;19.12;100.00
73941;BME280;62294;48.554;10.202;2023-07-13T07:00:02;91206.22;;;19.52;100.00
73941;BME280;62294;48.554;10.202;2023-07-13T07:02:29;91383.50;;;19.33;100.00
73941;BME280;62294;48.554;10.202;2023-07-13T07:04:56;91517.28;;;19.11;100.00
73941;BME280;62294;48.554;10.202;2023-07-13T07:07:24;91459.69;;;19.75;100.00
73941;BME280;62294;48.554;10.202;2023-07-13T07:09:51;91562.44;;;19.92;100.00
73941;BME280;62294;48.554;10.202;2023-07-13T07:12:18;91634.38;;;21.11;100.00
73941;BME280;62294;48.554;10.202;2023-07-13T07:14:44;91971.16;;;21.67;100.00
73941;BME280;62294;48.554;10.202;2023-07-13T07:17:11;92639.63;;;20.17;100.00
73941;BME280;62294;48.554;10.202;2023-07-13T07:19:38;92667.88;;;20.01;100.00
73941;BME280;62294;48.554;10.202;2023-07-13T07:22:04;92757.19;;;19.80;100.00
73941;BME280;62294;48.554;10.202;2023-07-13T07:24:31;92846.03;;;19.76;100.00
73941;BME280;62294;48.554;10.202;2023-07-13T07:26:58;92808.59;;;21.98;100.00
73941;BME280;62294;48.554;10.202;2023-07-13T07:29:27;93419.31;;;23.79;100.00
73941;BME280;62294;48.554;10.202;2023-07-13T07:31:58;94038.22;;;22.18;100.00
73941;BME280;62294;48.554;10.202;2023-07-13T07:34:32;94099.69;;;22.06;100.00
73941;BME280;62294;48.554;10.202;2023-07-13T07:36:59;94051.19;;;21.88;100.00
73941;BME280;62294;48.554;10.202;2023-07-13T07:39:30;94065.28;;;20.84;100.00
73941;BME280;62294;48.554;10.202;2023-07-13T07:41:57;93856.16;;;21.66;100.00
73941;BME280;62294;48.554;10.202;2023-07-13T07:44:23;94013.41;;;21.56;100.00
73941;BME280;62294;48.554;10.202;2023-07-13T07:46:50;94181.50;;;21.16;100.00
73941;BME280;62294;48.554;10.202;2023-07-13T07:49:17;94047.16;;;22.83;100.00
73941;BME280;62294;48.554;10.202;2023-07-13T07:51:43;94230.06;;;22.68;100.00
73941;BME280;62294;48.554;10.202;2023-07-13T07:54:09;94336.50;;;21.33;100.00
73941;BME280;62294;48.554;10.202;2023-07-13T07:56:40;94280.66;;;23.24;100.00
73941;BME280;62294;48.554;10.202;2023-07-13T07:59:09;94387.47;;;25.54;100.00
73941;BME280;62294;48.554;10.202;2023-07-13T08:01:39;94742.13;;;24.97;100.00
73941;BME280;62294;48.554;10.202;2023-07-13T08:04:08;94830.84;;;24.69;100.00
73941;BME280;62294;48.554;10.202;2023-07-13T08:06:55;94833.75;;;25.33;100.00
73941;BME280;62294;48.554;10.202;2023-07-13T08:09:25;94926.84;;;23.32;100.00
73941;BME280;62294;48.554;10.202;2023-07-13T08:11:51;94881.81;;;22.55;100.00
73941;BME280;62294;48.554;10.202;2023-07-13T08:14:21;94884.28;;;21.97;100.00
73941;BME280;62294;48.554;10.202;2023-07-13T08:16:47;94786.22;;;23.01;100.00
73941;BME280;62294;48.554;10.202;2023-07-13T08:19:14;94985.69;;;22.59;100.00
73941;BME280;62294;48.554;10.202;2023-07-13T08:21:40;94924.41;;;23.10;100.00
73941;BME280;62294;48.554;10.202;2023-07-13T08:24:09;94985.41;;;24.29;100.00
73941;BME280;62294;48.554;10.202;2023-07-13T08:26:36;94929.63;;;23.61;100.00
73941;BME280;62294;48.554;10.202;2023-07-13T08:29:02;94927.50;;;24.91;100.00
73941;BME280;62294;48.554;10.202;2023-07-13T08:31:29;95085.69;;;25.70;100.00
73941;BME280;62294;48.554;10.202;2023-07-13T08:33:56;95040.06;;;24.69;100.00
73941;BME280;62294;48.554;10.202;2023-07-13T08:36:25;95087.63;;;23.41;100.00
73941;BME280;62294;48.554;10.202;2023-07-13T08:38:52;95119.88;;;23.97;100.00
73941;BME280;62294;48.554;10.202;2023-07-13T08:41:18;95133.63;;;25.42;100.00
73941;BME280;62294;48.554;10.202;2023-07-13T08:43:49;93726.91;;;25.29;100.00
73941;BME280;62294;48.554;10.202;2023-07-13T08:46:24;93157.47;;;25.16;100.00
73941;BME280;62294;48.554;10.202;2023-07-13T08:48:58;93358.88;;;23.52;100.00
73941;BME280;62294;48.554;10.202;2023-07-13T08:51:38;93351.06;;;24.33;100.00
73941;BME280;62294;48.554;10.202;2023-07-13T08:54:19;93300.16;;;24.96;100.00
73941;BME280;62294;48.554;10.202;2023-07-13T08:56:47;93402.22;;;24.31;100.00
73941;BME280;62294;48.554;10.202;2023-07-13T08:59:17;93488.59;;;24.78;100.00
73941;BME280;62294;48.554;10.202;2023-07-13T09:02:14;93541.53;;;24.12;100.00
73941;BME280;62294;48.554;10.202;2023-07-13T09:12:45;94322.53;;;28.73;100.00
73941;BME280;62294;48.554;10.202;2023-07-13T09:15:27;94588.34;;;29.45;100.00
73941;BME280;62294;48.554;10.202;2023-07-13T09:18:03;94825.28;;;28.55;100.00
73941;BME280;62294;48.554;10.202;2023-07-13T09:20:35;94958.47;;;28.93;100.00
73941;BME280;62294;48.554;10.202;2023-07-13T09:23:07;94987.41;;;28.05;100.00
73941;BME280;62294;48.554;10.202;2023-07-13T09:25:40;95056.78;;;29.05;100.00
73941;BME280;62294;48.554;10.202;2023-07-13T09:28:20;95170.72;;;28.63;100.00
73941;BME280;62294;48.554;10.202;2023-07-13T09:33:21;95309.78;;;30.31;100.00
73941;BME280;62294;48.554;10.202;2023-07-13T09:35:47;95347.22;;;29.70;100.00
73941;BME280;62294;48.554;10.202;2023-07-13T09:38:19;95361.97;;;28.87;100.00
73941;BME280;62294;48.554;10.202;2023-07-13T09:41:04;95322.47;;;30.01;100.00
73941;BME280;62294;48.554;10.202;2023-07-13T09:43:36;95362.34;;;30.33;100.00
73941;BME280;62294;48.554;10.202;2023-07-13T09:46:03;95385.66;;;31.04;100.00
73941;BME280;62294;48.554;10.202;2023-07-13T09:48:35;95413.31;;;27.14;100.00
73941;BME280;62294;48.554;10.202;2023-07-13T09:51:13;95205.84;;;26.38;100.00
73941;BME280;62294;48.554;10.202;2023-07-13T09:53:43;95730.41;;;27.61;100.00
73941;BME280;62294;48.554;10.202;2023-07-13T09:56:24;95861.34;;;27.19;100.00
73941;BME280;62294;48.554;10.202;2023-07-13T09:58:50;95766.66;;;27.61;100.00
73941;BME280;62294;48.554;10.202;2023-07-13T10:01:31;95805.13;;;26.43;100.00
73941;BME280;62294;48.554;10.202;2023-07-13T10:03:58;95780.91;;;26.96;100.00
73941;BME280;62294;48.554;10.202;2023-07-13T10:06:25;95805.22;;;27.80;100.00
73941;BME280;62294;48.554;10.202;2023-07-13T10:08:56;95870.09;;;28.78;100.00
73941;BME280;62294;48.554;10.202;2023-07-13T10:11:27;95889.91;;;29.20;100.00
73941;BME280;62294;48.554;10.202;2023-07-13T10:14:00;95769.84;;;28.04;100.00
73941;BME280;62294;48.554;10.202;2023-07-13T10:16:32;95810.78;;;25.95;100.00
73941;BME280;62294;48.554;10.202;2023-07-13T10:19:04;95745.56;;;27.00;100.00
73941;BME280;62294;48.554;10.202;2023-07-13T10:21:39;95816.88;;;28.88;100.00
73941;BME280;62294;48.554;10.202;2023-07-13T10:24:24;95891.25;;;28.69;100.00
73941;BME280;62294;48.554;10.202;2023-07-13T10:29:37;95868.16;;;28.78;100.00
73941;BME280;62294;48.554;10.202;2023-07-13T10:32:09;95901.13;;;28.61;100.00
73941;BME280;62294;48.554;10.202;2023-07-13T10:34:37;95857.69;;;30.29;100.00
73941;BME280;62294;48.554;10.202;2023-07-13T10:37:05;95931.13;;;30.36;100.00
73941;BME280;62294;48.554;10.202;2023-07-13T10:39:37;95824.81;;;30.17;100.00
73941;BME280;62294;48.554;10.202;2023-07-13T10:42:09;95877.47;;;27.33;100.00
73941;BME280;62294;48.554;10.202;2023-07-13T10:44:41;95797.50;;;27.62;100.00
73941;BME280;62294;48.554;10.202;2023-07-13T10:47:13;95814.88;;;29.85;100.00
73941;BME280;62294;48.554;10.202;2023-07-13T10:49:41;95827.44;;;30.26;100.00
73941;BME280;62294;48.554;10.202;2023-07-13T10:52:47;95804.94;;;29.28;100.00
73941;BME280;62294;48.554;10.202;2023-07-13T10:55:34;95790.06;;;29.41;100.00
73941;BME280;62294;48.554;10.202;2023-07-13T10:58:19;95817.97;;;29.71;100.00
73941;BME280;62294;48.554;10.202;2023-07-13T11:00:49;95836.34;;;29.83;100.00
73941;BME280;62294;48.554;10.202;2023-07-13T11:03:20;95857.63;;;29.62;100.00
73941;BME280;62294;48.554;10.202;2023-07-13T11:05:50;95793.63;;;29.42;100.00
73941;BME280;62294;48.554;10.202;2023-07-13T11:08:31;95704.78;;;26.83;100.00
73941;BME280;62294;48.554;10.202;2023-07-13T11:10:58;95648.50;;;25.22;100.00
73941;BME280;62294;48.554;10.202;2023-07-13T11:21:33;95586.50;;;26.66;100.00
73941;BME280;62294;48.554;10.202;2023-07-13T11:24:04;95634.34;;;26.55;100.00
73941;BME280;62294;48.554;10.202;2023-07-13T11:31:53;95562.91;;;26.21;100.00
73941;BME280;62294;48.554;10.202;2023-07-13T11:34:45;95662.63;;;28.32;100.00
73941;BME280;62294;48.554;10.202;2023-07-13T11:37:12;95741.66;;;28.69;100.00
73941;BME280;62294;48.554;10.202;2023-07-13T11:39:43;95785.09;;;28.50;100.00
73941;BME280;62294;48.554;10.202;2023-07-13T11:42:15;95799.56;;;27.15;100.00
73941;BME280;62294;48.554;10.202;2023-07-13T11:44:47;95684.22;;;26.18;100.00
73941;BME280;62294;48.554;10.202;2023-07-13T11:47:33;95639.09;;;25.91;100.00
73941;BME280;62294;48.554;10.202;2023-07-13T11:50:00;95643.19;;;26.06;100.00
73941;BME280;62294;48.554;10.202;2023-07-13T11:52:35;95650.91;;;26.04;100.00
73941;BME280;62294;48.554;10.202;2023-07-13T11:55:13;95718.66;;;26.23;100.00
73941;BME280;62294;48.554;10.202;2023-07-13T11:57:47;95678.91;;;25.07;100.00
73941;BME280;62294;48.554;10.202;2023-07-13T12:00:22;95645.38;;;26.59;100.00
73941;BME280;62294;48.554;10.202;2023-07-13T12:02:51;95721.84;;;27.21;100.00
73941;BME280;62294;48.554;10.202;2023-07-13T12:05:19;95731.81;;;27.17;100.00
73941;BME280;62294;48.554;10.202;2023-07-13T12:07:50;95792.38;;;28.01;100.00
73941;BME280;62294;48.554;10.202;2023-07-13T12:10:28;95835.34;;;27.92;100.00
73941;BME280;62294;48.554;10.202;2023-07-13T12:12:57;95788.03;;;27.59;100.00
73941;BME280;62294;48.554;10.202;2023-07-13T12:15:29;95801.81;;;27.13;100.00
73941;BME280;62294;48.554;10.202;2023-07-13T12:17:57;95823.88;;;28.20;100.00
73941;BME280;62294;48.554;10.202;2023-07-13T12:20:26;95880.81;;;28.83;100.00
73941;BME280;62294;48.554;10.202;2023-07-13T12:22:53;95853.00;;;27.45;100.00
73941;BME280;62294;48.554;10.202;2023-07-13T12:25:22;95791.28;;;25.84;100.00
73941;BME280;62294;48.554;10.202;2023-07-13T12:27:50;95794.09;;;26.39;100.00
73941;BME280;62294;48.554;10.202;2023-07-13T12:30:23;95865.72;;;29.58;100.00
73941;BME280;62294;48.554;10.202;2023-07-13T12:33:16;95919.03;;;29.04;100.00
73941;BME280;62294;48.554;10.202;2023-07-13T12:35:47;95921.13;;;29.07;100.00
73941;BME280;62294;48.554;10.202;2023-07-13T12:38:16;95893.75;;;28.62;100.00
73941;BME280;62294;48.554;10.202;2023-07-13T12:40:43;95805.28;;;28.13;100.00
73941;BME280;62294;48.554;10.202;2023-07-13T12:43:13;95839.66;;;28.92;100.00
73941;BME280;62294;48.554;10.202;2023-07-13T12:46:03;95849.63;;;29.44;100.00
73941;BME280;62294;48.554;10.202;2023-07-13T12:48:38;95872.28;;;27.98;100.00
73941;BME280;62294;48.554;10.202;2023-07-13T12:51:16;95797.25;;;27.25;100.00
73941;BME280;62294;48.554;10.202;2023-07-13T12:53:49;95871.63;;;29.72;100.00
73941;BME280;62294;48.554;10.202;2023-07-13T12:56:27;95908.84;;;31.86;100.00
73941;BME280;62294;48.554;10.202;2023-07-13T12:59:00;95928.69;;;29.82;100.00
73941;BME280;62294;48.554;10.202;2023-07-13T13:01:31;95902.00;;;29.31;100.00
73941;BME280;62294;48.554;10.202;2023-07-13T13:04:01;95808.81;;;27.22;100.00
73941;BME280;62294;48.554;10.202;2023-07-13T13:06:30;95351.22;;;23.94;100.00
73941;BME280;62294;48.554;10.202;2023-07-13T13:08:58;95109.94;;;24.10;100.00
73941;BME280;62294;48.554;10.202;2023-07-13T13:11:31;95143.16;;;24.95;100.00
73941;BME280;62294;48.554;10.202;2023-07-13T13:13:58;95277.09;;;25.95;100.00
73941;BME280;62294;48.554;10.202;2023-07-13T13:18:56;95140.72;;;24.23;100.00
73941;BME280;62294;48.554;10.202;2023-07-13T13:21:27;95171.81;;;24.63;100.00
73941;BME280;62294;48.554;10.202;2023-07-13T13:23:53;95140.25;;;24.12;100.00